Time;durP1;ratioP1;P1;durP2;ratioP2;P2;SDS_P1;SDS_P2;PMS_P1;PMS_P2;Temp;Humidity;BMP_temperature;BMP_pressure;BME280_temperature;BME280_humidity;BME280_pressure;Samples;Min_cycle;Max_cycle;Signal;HPM_P1;HPM_P2
2022/02/15 00:01:51;;;;;;;21.15;11.73;;;23.60;36.30;;;;;;6105810;28;83755;-63
2022/02/15 00:04:52;;;;;;;21.02;12.63;;;23.60;36.50;;;;;;6125353;28;82751;-63
2022/02/15 00:07:52;;;;;;;19.48;11.73;;;23.60;36.50;;;;;;6114220;28;84194;-64
2022/02/15 00:10:53;;;;;;;23.30;12.43;;;23.60;36.50;;;;;;6126257;28;84345;-64
2022/02/15 00:13:54;;;;;;;17.90;10.95;;;23.60;36.30;;;;;;6111889;28;82991;-64
2022/02/15 00:16:55;;;;;;;20.17;11.95;;;23.50;36.30;;;;;;6119815;28;83649;-64
2022/02/15 00:19:56;;;;;;;22.63;12.40;;;23.60;36.50;;;;;;6094325;28;83903;-63
2022/02/15 00:22:56;;;;;;;19.63;11.88;;;23.50;36.20;;;;;;6103066;28;83257;-63
2022/02/15 00:25:57;;;;;;;16.95;11.63;;;23.60;36.30;;;;;;6103933;28;83047;-63
2022/02/15 00:28:57;;;;;;;20.23;11.82;;;23.50;36.00;;;;;;6119527;28;85717;-63
2022/02/15 00:31:58;;;;;;;24.30;13.75;;;23.50;36.10;;;;;;6105215;28;83500;-63
2022/02/15 00:34:59;;;;;;;21.77;11.90;;;23.50;36.30;;;;;;6104988;28;84159;-63
2022/02/15 00:37:59;;;;;;;23.02;12.73;;;23.50;36.10;;;;;;6122743;28;85714;-62
2022/02/15 00:41:00;;;;;;;23.55;11.52;;;23.50;36.00;;;;;;6116274;28;83089;-63
2022/02/15 00:44:00;;;;;;;24.27;12.20;;;23.50;36.00;;;;;;6102410;28;83193;-63
2022/02/15 00:47:03;;;;;;;21.42;13.27;;;23.50;36.20;;;;;;6114113;28;85000;-63
2022/02/15 00:50:04;;;;;;;19.65;12.63;;;23.50;35.80;;;;;;6077193;28;83422;-63
2022/02/15 00:53:04;;;;;;;21.80;13.48;;;23.50;35.70;;;;;;6094279;28;83444;-63
2022/02/15 00:56:05;;;;;;;22.40;13.50;;;23.50;36.00;;;;;;6087372;28;85679;-64
2022/02/15 00:59:06;;;;;;;20.58;11.98;;;23.50;35.90;;;;;;6089970;28;83090;-64
2022/02/15 01:02:06;;;;;;;26.08;13.05;;;23.50;35.80;;;;;;6105480;28;83477;-64
2022/02/15 01:05:07;;;;;;;22.08;12.98;;;23.50;35.90;;;;;;6125367;28;83053;-63
2022/02/15 01:08:08;;;;;;;21.00;12.85;;;23.50;35.90;;;;;;6110887;28;83896;-63
2022/02/15 01:11:09;;;;;;;21.27;12.82;;;23.50;35.80;;;;;;6118019;28;83764;-63
2022/02/15 01:14:09;;;;;;;21.15;12.20;;;23.50;35.70;;;;;;6106902;28;83070;-63
2022/02/15 01:17:10;;;;;;;23.88;13.05;;;23.50;35.70;;;;;;6104501;28;89043;-63
2022/02/15 01:20:10;;;;;;;23.50;13.52;;;23.50;35.70;;;;;;6107055;28;83825;-63
2022/02/15 01:23:12;;;;;;;21.88;12.98;;;23.50;36.00;;;;;;6102967;28;85116;-63
2022/02/15 01:26:13;;;;;;;22.55;12.27;;;23.50;36.00;;;;;;6124358;28;83271;-63
2022/02/15 01:29:14;;;;;;;22.35;12.75;;;23.50;36.20;;;;;;6103521;28;86160;-63
2022/02/15 01:32:15;;;;;;;22.00;13.10;;;23.50;36.00;;;;;;6104876;28;85846;-63
2022/02/15 01:35:16;;;;;;;25.15;12.65;;;23.50;35.90;;;;;;6113689;28;85747;-63
2022/02/15 01:38:17;;;;;;;24.73;13.75;;;23.50;35.90;;;;;;6126191;28;85871;-64
2022/02/15 01:41:18;;;;;;;21.00;12.60;;;23.50;36.20;;;;;;6124960;28;85895;-63
2022/02/15 01:44:18;;;;;;;24.73;13.43;;;23.50;36.00;;;;;;6120725;28;84222;-64
2022/02/15 01:47:19;;;;;;;23.20;13.10;;;23.50;36.10;;;;;;6110637;28;85858;-63
2022/02/15 01:50:19;;;;;;;25.05;14.02;;;23.40;36.00;;;;;;6122108;28;83040;-63
2022/02/15 01:53:20;;;;;;;22.83;12.30;;;23.40;35.90;;;;;;6102273;28;85659;-64
2022/02/15 01:56:21;;;;;;;23.10;13.70;;;23.40;35.80;;;;;;6121038;28;85125;-64
2022/02/15 01:59:22;;;;;;;25.17;14.07;;;23.40;35.80;;;;;;6107250;28;84294;-64
2022/02/15 02:02:23;;;;;;;21.48;13.45;;;23.40;35.90;;;;;;6120281;28;85710;-64
2022/02/15 02:08:46;;;;;;;26.55;13.18;;;23.40;36.00;;;;;;6108096;28;85457;-64
2022/02/15 02:11:47;;;;;;;25.35;15.13;;;23.40;35.60;;;;;;6111091;28;84375;-64
2022/02/15 02:14:54;;;;;;;25.60;14.02;;;23.40;35.70;;;;;;6113701;28;86075;-64
2022/02/15 02:17:56;;;;;;;23.85;13.82;;;23.40;35.60;;;;;;6110847;28;83727;-64
2022/02/15 02:20:57;;;;;;;26.35;14.40;;;23.40;35.60;;;;;;6098154;28;85328;-63
2022/02/15 02:23:58;;;;;;;22.80;13.75;;;23.40;35.60;;;;;;6109378;28;85269;-63
2022/02/15 02:27:02;;;;;;;24.83;13.95;;;23.40;35.50;;;;;;6115348;28;86401;-63
2022/02/15 02:30:03;;;;;;;24.90;14.23;;;23.40;35.50;;;;;;6109468;28;83801;-63
2022/02/15 02:33:10;;;;;;;21.98;12.88;;;23.40;35.30;;;;;;6100668;28;84520;-64
2022/02/15 02:36:10;;;;;;;21.48;13.45;;;23.40;35.40;;;;;;6099709;28;86158;-63
2022/02/15 02:39:11;;;;;;;23.83;13.75;;;23.40;35.40;;;;;;6118383;28;85879;-63
2022/02/15 02:42:12;;;;;;;26.40;14.25;;;23.40;35.30;;;;;;6103026;28;83241;-63
2022/02/15 02:45:12;;;;;;;20.35;12.80;;;23.40;35.30;;;;;;6112186;28;85583;-62
2022/02/15 02:48:13;;;;;;;25.23;14.20;;;23.40;35.20;;;;;;6126404;28;85716;-63
2022/02/15 02:51:14;;;;;;;22.67;13.27;;;23.30;35.10;;;;;;6111356;28;83830;-63
2022/02/15 02:54:14;;;;;;;23.88;13.73;;;23.30;35.20;;;;;;6124037;28;83076;-63
2022/02/15 02:57:27;;;;;;;26.17;13.88;;;23.30;35.40;;;;;;6124965;28;86226;-64
2022/02/15 03:00:30;;;;;;;28.45;15.15;;;23.30;35.30;;;;;;6120188;28;84459;-64
2022/02/15 03:03:45;;;;;;;30.10;15.65;;;23.30;35.00;;;;;;6103996;28;86129;-64
2022/02/15 03:06:46;;;;;;;23.58;13.95;;;23.30;35.30;;;;;;6084196;28;84458;-64
2022/02/15 03:09:46;;;;;;;26.17;14.10;;;23.30;35.30;;;;;;6105987;28;83269;-63
2022/02/15 03:12:48;;;;;;;28.70;13.32;;;23.30;35.30;;;;;;6111685;28;85585;-64
2022/02/15 03:15:48;;;;;;;21.85;12.25;;;23.30;35.30;;;;;;6111653;28;83453;-63
2022/02/15 03:18:49;;;;;;;22.73;12.85;;;23.20;35.30;;;;;;6114910;28;84693;-63
2022/02/15 03:21:49;;;;;;;28.55;13.18;;;23.20;35.30;;;;;;6111274;28;85961;-64
2022/02/15 03:24:50;;;;;;;22.63;13.45;;;23.20;34.90;;;;;;6123444;28;86226;-63
2022/02/15 03:27:51;;;;;;;23.67;13.75;;;23.20;35.30;;;;;;6107869;28;85594;-63
2022/02/15 03:30:53;;;;;;;23.73;13.18;;;23.20;35.30;;;;;;6092694;28;85800;-64
2022/02/15 03:33:56;;;;;;;25.98;13.68;;;23.20;34.70;;;;;;6108814;28;84279;-63
2022/02/15 03:36:58;;;;;;;24.83;13.43;;;23.20;35.10;;;;;;6107374;28;85831;-63
2022/02/15 03:39:58;;;;;;;22.33;13.18;;;23.20;35.20;;;;;;6100193;28;83093;-63
2022/02/15 03:43:05;;;;;;;24.13;13.95;;;23.20;35.10;;;;;;6112396;28;84643;-63
2022/02/15 03:46:07;;;;;;;23.65;13.65;;;23.20;34.90;;;;;;6096965;28;85854;-63
2022/02/15 03:49:12;;;;;;;24.33;13.43;;;23.20;35.10;;;;;;6103010;28;85396;-63
2022/02/15 03:52:13;;;;;;;24.10;14.30;;;23.20;35.30;;;;;;6115817;28;85911;-63
2022/02/15 03:55:16;;;;;;;26.98;15.18;;;23.30;35.00;;;;;;6106301;28;84246;-63
2022/02/15 03:58:17;;;;;;;27.90;14.93;;;23.20;34.90;;;;;;6121491;28;86062;-61
2022/02/15 04:01:18;;;;;;;24.85;14.25;;;23.20;35.00;;;;;;6120992;28;85968;-63
2022/02/15 04:04:19;;;;;;;24.63;14.00;;;23.20;34.70;;;;;;6110230;28;83448;-62
2022/02/15 04:07:22;;;;;;;25.80;14.88;;;23.20;35.40;;;;;;6122835;28;89424;-63
2022/02/15 04:10:22;;;;;;;26.20;15.55;;;23.20;34.70;;;;;;6102156;28;84633;-63
2022/02/15 04:13:23;;;;;;;26.42;15.38;;;23.20;35.00;;;;;;6105688;28;85823;-63
2022/02/15 04:16:24;;;;;;;24.50;14.85;;;23.30;35.00;;;;;;6100151;28;84266;-62
2022/02/15 04:19:25;;;;;;;26.25;15.80;;;23.30;34.90;;;;;;6106867;28;83504;-62
2022/02/15 04:22:26;;;;;;;25.88;15.82;;;23.30;34.90;;;;;;6106648;28;84384;-61
2022/02/15 04:25:27;;;;;;;26.92;16.55;;;23.40;34.60;;;;;;6113223;28;85850;-63
2022/02/15 04:28:32;;;;;;;29.40;15.88;;;23.40;34.40;;;;;;6126364;28;85873;-62
2022/02/15 04:31:34;;;;;;;31.02;17.15;;;23.50;34.30;;;;;;6113058;28;85087;-61
2022/02/15 04:34:35;;;;;;;28.73;16.55;;;23.50;34.00;;;;;;6113991;28;85262;-63
2022/02/15 04:37:37;;;;;;;28.20;15.50;;;23.60;34.00;;;;;;6119802;28;85367;-63
2022/02/15 04:40:38;;;;;;;28.17;16.23;;;23.60;33.80;;;;;;6109115;28;85786;-63
2022/02/15 04:43:41;;;;;;;30.58;16.42;;;23.60;33.80;;;;;;6096246;28;85897;-62
2022/02/15 04:46:48;;;;;;;28.45;15.70;;;23.60;33.60;;;;;;6099485;28;86156;-62
2022/02/15 04:49:53;;;;;;;28.63;16.35;;;23.60;33.40;;;;;;6099648;28;86329;-63
2022/02/15 04:52:55;;;;;;;29.40;16.02;;;23.70;33.40;;;;;;6112340;28;85946;-62
2022/02/15 04:56:00;;;;;;;27.63;16.38;;;23.70;33.30;;;;;;6104431;28;85545;-62
2022/02/15 04:59:00;;;;;;;31.67;17.85;;;23.70;33.20;;;;;;6105853;28;85704;-62
2022/02/15 05:02:01;;;;;;;29.92;17.50;;;23.70;33.10;;;;;;6109705;28;85717;-62
2022/02/15 05:05:01;;;;;;;28.13;16.50;;;23.80;33.20;;;;;;6116982;28;86704;-66
2022/02/15 05:08:12;;;;;;;25.63;16.00;;;23.80;33.30;;;;;;6107239;28;85829;-66
2022/02/15 05:11:12;;;;;;;29.25;17.38;;;23.80;33.10;;;;;;6117099;28;86006;-64
2022/02/15 05:14:18;;;;;;;30.98;17.88;;;23.80;33.00;;;;;;6110875;28;85821;-65
2022/02/15 05:17:21;;;;;;;32.17;17.95;;;23.80;32.90;;;;;;6110581;28;85971;-66
2022/02/15 05:20:26;;;;;;;30.55;17.63;;;23.90;32.80;;;;;;6107060;28;85969;-64
2022/02/15 05:23:27;;;;;;;32.05;17.70;;;23.90;32.70;;;;;;6106447;28;85796;-62
2022/02/15 05:26:28;;;;;;;33.13;17.38;;;23.90;32.60;;;;;;6105497;28;86114;-62
2022/02/15 05:29:32;;;;;;;31.63;18.05;;;23.90;32.50;;;;;;6093447;28;83992;-62
2022/02/15 05:33:05;;;;;;;29.75;17.92;;;23.90;32.80;;;;;;6109327;28;83543;-61
2022/02/15 05:36:12;;;;;;;32.00;18.52;;;24.00;33.20;;;;;;6110085;28;86022;-60
2022/02/15 05:39:17;;;;;;;32.00;16.98;;;24.00;33.20;;;;;;6091125;28;85068;-60
2022/02/15 05:42:26;;;;;;;25.90;14.25;;;24.00;33.30;;;;;;6105441;28;84024;-62
2022/02/15 05:45:27;;;;;;;24.38;13.93;;;24.00;35.50;;;;;;6118735;28;86301;-62
2022/02/15 05:49:02;;;;;;;22.58;13.50;;;23.90;36.60;;;;;;6107516;28;83886;-62
2022/02/15 05:52:23;;;;;;;20.77;11.40;;;23.90;37.70;;;;;;6100825;28;88911;-61
2022/02/15 05:55:24;;;;;;;18.95;10.25;;;23.90;38.80;;;;;;6087996;28;86204;-63
2022/02/15 05:58:24;;;;;;;20.98;10.75;;;23.80;39.10;;;;;;6113963;28;86240;-62
2022/02/15 06:01:25;;;;;;;17.95;10.07;;;23.80;39.50;;;;;;6107295;28;86178;-62
2022/02/15 06:04:26;;;;;;;16.83;9.90;;;23.70;39.90;;;;;;6122149;28;85665;-63
2022/02/15 06:07:34;;;;;;;14.60;9.25;;;23.70;40.20;;;;;;6108017;28;85408;-63
2022/02/15 06:10:48;;;;;;;17.77;10.15;;;23.70;40.40;;;;;;6109497;28;81857;-64
2022/02/15 06:14:08;;;;;;;17.98;9.73;;;23.70;40.60;;;;;;6099967;28;85438;-64
2022/02/15 06:17:10;;;;;;;21.33;12.60;;;23.70;41.00;;;;;;6126538;28;84459;-66
2022/02/15 06:20:11;;;;;;;22.73;12.48;;;23.70;41.30;;;;;;6102251;28;83441;-64
2022/02/15 06:23:16;;;;;;;20.35;12.45;;;23.70;41.70;;;;;;6117437;28;85327;-64
2022/02/15 06:26:17;;;;;;;31.55;14.98;;;23.70;42.40;;;;;;6119870;28;85218;-65
2022/02/15 06:29:50;;;;;;;23.73;13.95;;;23.70;42.30;;;;;;6131715;28;83336;-65
2022/02/15 06:33:01;;;;;;;25.30;14.95;;;23.70;42.80;;;;;;6096535;28;85195;-65
2022/02/15 06:36:02;;;;;;;27.45;16.48;;;23.70;42.80;;;;;;6090242;28;85900;-66
2022/02/15 06:39:09;;;;;;;25.92;15.95;;;23.70;43.00;;;;;;6102414;28;85243;-65
2022/02/15 06:42:10;;;;;;;31.40;18.75;;;23.60;43.70;;;;;;6119558;28;84372;-66
2022/02/15 06:45:12;;;;;;;30.02;17.05;;;23.60;43.10;;;;;;6108477;28;85468;-67
2022/02/15 06:48:13;;;;;;;40.97;22.20;;;23.70;43.40;;;;;;6096615;28;85564;-66
2022/02/15 06:51:13;;;;;;;30.45;18.77;;;23.70;43.30;;;;;;6085862;28;84727;-66
2022/02/15 06:54:37;;;;;;;32.47;17.95;;;23.80;42.80;;;;;;6102428;28;85489;-65
2022/02/15 06:57:41;;;;;;;33.33;17.60;;;23.90;42.70;;;;;;6119818;28;85613;-66
2022/02/15 07:00:42;;;;;;;31.15;16.52;;;23.90;42.80;;;;;;6095265;28;84205;-68
2022/02/15 07:03:43;;;;;;;25.23;15.98;;;23.90;42.40;;;;;;6091562;28;85140;-68
2022/02/15 07:06:43;;;;;;;30.50;15.95;;;23.90;42.30;;;;;;6091359;28;85503;-66
2022/02/15 07:09:45;;;;;;;27.55;15.95;;;24.00;41.90;;;;;;6114872;28;85618;-65
2022/02/15 07:12:54;;;;;;;24.15;15.07;;;24.00;41.80;;;;;;6099719;28;84413;-66
2022/02/15 07:15:59;;;;;;;26.70;16.27;;;24.00;41.80;;;;;;6106768;28;86120;-66
2022/02/15 07:19:01;;;;;;;26.45;14.13;;;24.00;41.30;;;;;;6094204;28;84352;-64
2022/02/15 07:22:21;;;;;;;25.08;14.02;;;24.00;41.50;;;;;;6096879;28;88592;-65
2022/02/15 07:25:37;;;;;;;23.80;14.45;;;24.00;41.30;;;;;;6121918;28;85572;-64
2022/02/15 07:29:02;;;;;;;21.35;13.82;;;24.10;41.00;;;;;;6110575;28;85345;-64
2022/02/15 07:32:08;;;;;;;26.25;14.02;;;24.10;41.20;;;;;;6127561;28;84877;-63
2022/02/15 07:35:08;;;;;;;21.75;13.35;;;24.10;40.80;;;;;;6105643;28;84459;-62
2022/02/15 07:38:09;;;;;;;32.95;16.45;;;24.10;40.30;;;;;;6097207;28;84719;-62
2022/02/15 07:41:09;;;;;;;22.90;13.60;;;24.10;39.90;;;;;;6105061;28;83271;-66
2022/02/15 07:44:10;;;;;;;22.88;14.55;;;24.10;40.10;;;;;;6105944;28;83897;-67
2022/02/15 07:47:17;;;;;;;24.58;13.95;;;24.10;39.70;;;;;;6120356;28;83994;-66
2022/02/15 07:50:18;;;;;;;23.60;13.50;;;24.10;39.60;;;;;;6112548;28;82923;-66
2022/02/15 07:53:20;;;;;;;22.85;12.90;;;24.10;39.40;;;;;;6106098;28;83977;-65
2022/02/15 07:56:20;;;;;;;22.42;13.98;;;24.10;39.50;;;;;;6116530;28;83081;-70
2022/02/15 07:59:21;;;;;;;25.20;13.50;;;24.20;39.40;;;;;;6105172;28;84517;-67
2022/02/15 08:02:21;;;;;;;22.17;13.77;;;24.20;40.20;;;;;;6102568;28;86498;-65
2022/02/15 08:05:22;;;;;;;26.20;13.98;;;24.30;40.20;;;;;;6102725;28;84379;-66
2022/02/15 08:08:24;;;;;;;26.92;14.30;;;24.30;40.40;;;;;;6104137;28;86046;-65
2022/02/15 08:11:25;;;;;;;28.02;15.15;;;24.30;40.50;;;;;;6104093;28;83401;-66
2022/02/15 08:14:25;;;;;;;27.23;14.57;;;24.40;40.50;;;;;;6109493;28;83040;-65
2022/02/15 08:17:26;;;;;;;24.88;14.90;;;24.40;39.90;;;;;;6115855;28;83111;-64
2022/02/15 08:20:27;;;;;;;26.38;14.57;;;24.50;39.30;;;;;;6107869;28;83324;-64
2022/02/15 08:23:27;;;;;;;28.65;17.13;;;24.50;39.20;;;;;;6107569;28;82911;-65
2022/02/15 08:26:28;;;;;;;25.88;15.45;;;24.50;38.10;;;;;;6106732;28;85385;-68
2022/02/15 08:29:29;;;;;;;37.88;22.60;;;24.60;38.00;;;;;;6091982;28;85924;-65
2022/02/15 08:32:29;;;;;;;39.55;23.98;;;24.40;35.80;;;;;;6100194;28;84276;-68
2022/02/15 08:35:30;;;;;;;39.92;25.30;;;24.10;35.20;;;;;;6106255;28;84426;-67
2022/02/15 08:38:33;;;;;;;45.17;24.27;;;23.90;35.00;;;;;;6107386;28;89955;-62
2022/02/15 08:41:33;;;;;;;46.05;25.33;;;23.80;34.80;;;;;;6107429;28;83031;-62
2022/02/15 08:44:34;;;;;;;40.88;24.70;;;23.70;35.00;;;;;;6103861;28;83587;-61
2022/02/15 08:47:35;;;;;;;43.67;25.52;;;23.60;35.40;;;;;;6100284;28;84138;-62
2022/02/15 08:50:35;;;;;;;42.97;24.63;;;23.60;35.20;;;;;;6094657;28;84193;-62
2022/02/15 08:53:36;;;;;;;44.53;24.73;;;23.50;34.60;;;;;;6103400;28;84247;-62
2022/02/15 08:56:37;;;;;;;43.17;24.90;;;23.50;34.50;;;;;;6100805;28;83261;-61
2022/02/15 08:59:38;;;;;;;44.53;25.33;;;23.50;34.20;;;;;;6096269;28;83807;-62
2022/02/15 09:02:38;;;;;;;48.63;25.50;;;23.50;34.20;;;;;;6097985;28;83409;-62
2022/02/15 09:05:39;;;;;;;45.80;25.92;;;23.50;33.30;;;;;;6117845;28;84265;-61
2022/02/15 09:08:39;;;;;;;48.83;26.33;;;23.40;33.10;;;;;;6106942;28;83329;-62
2022/02/15 09:11:40;;;;;;;38.17;23.27;;;23.30;33.00;;;;;;6114057;28;83590;-60
2022/02/15 09:14:40;;;;;;;48.83;23.65;;;23.40;34.10;;;;;;6090836;28;83115;-61
2022/02/15 09:17:41;;;;;;;41.05;23.23;;;23.60;34.10;;;;;;6093826;28;83854;-60
2022/02/15 09:20:42;;;;;;;48.55;24.30;;;23.70;34.40;;;;;;6105264;28;83484;-60
2022/02/15 09:23:43;;;;;;;43.40;24.25;;;23.80;34.20;;;;;;6103724;28;83954;-61
2022/02/15 09:26:43;;;;;;;44.33;24.05;;;23.90;34.00;;;;;;6104757;28;84339;-61
2022/02/15 09:29:44;;;;;;;36.15;21.70;;;24.00;33.70;;;;;;6101048;28;83638;-62
2022/02/15 09:32:44;;;;;;;39.42;21.27;;;24.10;34.20;;;;;;6100715;28;82907;-59
2022/02/15 09:35:45;;;;;;;36.63;19.63;;;24.10;34.10;;;;;;6097479;28;83364;-61
2022/02/15 09:38:45;;;;;;;35.75;20.20;;;24.30;34.40;;;;;;6105395;28;83230;-61
2022/02/15 09:41:46;;;;;;;31.77;18.85;;;24.30;34.60;;;;;;6114309;28;83740;-61
2022/02/15 09:44:47;;;;;;;35.45;18.38;;;24.40;34.50;;;;;;6114374;28;82942;-59
2022/02/15 09:47:47;;;;;;;36.15;17.02;;;24.50;33.90;;;;;;6101776;28;83331;-60
2022/02/15 09:50:49;;;;;;;27.00;15.63;;;24.60;33.90;;;;;;6097913;28;85242;-60
2022/02/15 09:53:49;;;;;;;23.00;13.00;;;24.70;33.60;;;;;;6098083;28;83165;-60
2022/02/15 09:56:50;;;;;;;23.30;12.70;;;24.80;33.30;;;;;;6101285;28;83081;-60
2022/02/15 09:59:50;;;;;;;22.58;12.02;;;24.80;33.00;;;;;;6096127;28;83645;-60
2022/02/15 10:02:51;;;;;;;22.83;12.23;;;24.90;32.90;;;;;;6091609;28;83179;-60
2022/02/15 10:05:51;;;;;;;19.85;10.45;;;25.00;32.80;;;;;;6105605;28;84097;-60
2022/02/15 10:08:52;;;;;;;17.02;9.98;;;25.10;32.80;;;;;;6093931;28;84961;-60
2022/02/15 10:11:52;;;;;;;18.38;11.60;;;25.20;32.40;;;;;;6100785;28;83486;-60
2022/02/15 10:14:53;;;;;;;19.35;9.38;;;25.20;32.50;;;;;;6102869;28;83169;-60
2022/02/15 10:17:54;;;;;;;20.17;11.15;;;25.30;32.60;;;;;;6102552;28;82854;-60
2022/02/15 10:20:55;;;;;;;17.08;10.25;;;25.30;32.40;;;;;;6106763;28;82997;-61
2022/02/15 10:23:56;;;;;;;15.77;9.95;;;25.40;32.10;;;;;;6102483;28;83086;-60
2022/02/15 10:26:57;;;;;;;20.35;10.38;;;25.50;32.60;;;;;;6109059;28;83072;-60
2022/02/15 10:29:58;;;;;;;17.77;9.05;;;25.50;31.90;;;;;;6096124;28;82894;-61
2022/02/15 10:32:58;;;;;;;13.60;9.60;;;25.40;31.70;;;;;;6093533;28;83034;-61
2022/02/15 10:35:59;;;;;;;14.65;10.13;;;25.50;32.10;;;;;;6100986;28;80741;-58
2022/02/15 10:39:01;;;;;;;14.77;9.43;;;25.50;32.20;;;;;;6088695;28;83098;-59
2022/02/15 10:42:01;;;;;;;19.23;10.93;;;25.60;32.20;;;;;;6091899;28;82900;-60
2022/02/15 10:45:02;;;;;;;14.82;9.07;;;25.60;32.30;;;;;;6094939;28;83270;-60
2022/02/15 10:48:02;;;;;;;17.10;9.25;;;25.60;32.00;;;;;;6097508;28;82822;-60
2022/02/15 10:51:03;;;;;;;13.77;8.73;;;25.60;32.00;;;;;;6095343;28;80336;-60
2022/02/15 10:54:06;;;;;;;16.38;9.15;;;25.70;32.00;;;;;;6093339;28;80663;-61
2022/02/15 10:57:06;;;;;;;13.70;8.73;;;25.70;32.40;;;;;;6091186;28;81441;-60
2022/02/15 11:00:10;;;;;;;19.45;10.10;;;25.70;31.60;;;;;;6097047;28;82004;-60
2022/02/15 11:03:11;;;;;;;15.32;9.35;;;25.70;31.60;;;;;;6094706;28;82771;-60
2022/02/15 11:06:12;;;;;;;25.85;10.88;;;25.70;31.20;;;;;;6116898;28;82994;-60
2022/02/15 11:09:12;;;;;;;20.50;9.93;;;25.80;31.40;;;;;;6118000;28;83709;-60
2022/02/15 11:12:13;;;;;;;16.33;8.90;;;25.80;31.60;;;;;;6123120;28;82891;-59
2022/02/15 11:15:13;;;;;;;17.63;9.38;;;25.80;31.50;;;;;;6121956;28;81158;-59
2022/02/15 11:18:19;;;;;;;16.05;9.57;;;25.80;30.90;;;;;;6120053;28;81580;-59
2022/02/15 11:21:20;;;;;;;;;;;25.80;30.60;;;;;;6117494;28;80581;-59
2022/02/15 11:24:20;;;;;;;22.33;11.30;;;25.80;30.60;;;;;;6112257;28;80809;-60
2022/02/15 11:27:21;;;;;;;19.00;10.85;;;25.80;30.70;;;;;;6102556;28;82764;-59
2022/02/15 11:30:28;;;;;;;14.38;9.15;;;25.70;30.10;;;;;;6111169;28;83840;-59
2022/02/15 11:33:28;;;;;;;19.05;10.65;;;25.70;31.30;;;;;;6098822;28;83250;-59
2022/02/15 11:36:29;;;;;;;18.13;9.57;;;25.70;30.50;;;;;;6108110;28;84106;-61
2022/02/15 11:39:38;;;;;;;16.65;9.73;;;25.80;31.50;;;;;;6102879;28;82180;-60
2022/02/15 11:42:38;;;;;;;14.63;9.20;;;25.80;31.30;;;;;;6100591;28;80574;-59
2022/02/15 11:45:41;;;;;;;16.83;8.85;;;25.80;31.20;;;;;;6103043;28;80404;-60
2022/02/15 11:48:41;;;;;;;16.70;9.55;;;25.80;31.10;;;;;;6110453;28;80380;-60
2022/02/15 11:51:42;;;;;;;15.60;8.95;;;25.90;31.10;;;;;;6097270;28;80428;-59
2022/02/15 11:54:42;;;;;;;15.63;9.88;;;25.80;30.70;;;;;;6107471;28;82181;-60
2022/02/15 11:57:43;;;;;;;17.23;9.82;;;25.80;30.70;;;;;;6110130;28;80583;-60
2022/02/15 12:00:44;;;;;;;17.27;9.15;;;25.80;30.20;;;;;;6117207;28;82219;-60
2022/02/15 12:03:45;;;;;;;16.63;8.55;;;25.70;29.90;;;;;;6111887;28;80395;-59
2022/02/15 12:06:48;;;;;;;13.82;8.45;;;25.60;29.90;;;;;;6118699;28;80534;-60
2022/02/15 12:09:48;;;;;;;13.00;7.72;;;25.60;30.00;;;;;;6126334;28;80849;-60
2022/02/15 12:12:50;;;;;;;17.90;9.13;;;25.60;30.30;;;;;;6126749;28;80579;-60
2022/02/15 12:15:50;;;;;;;17.25;8.35;;;25.50;29.80;;;;;;6116427;28;80580;-60
2022/02/15 12:18:51;;;;;;;13.07;7.72;;;25.50;29.70;;;;;;6128920;28;80666;-60
2022/02/15 12:21:51;;;;;;;21.17;9.43;;;25.30;29.50;;;;;;6105266;28;79973;-60
2022/02/15 12:24:52;;;;;;;13.55;7.82;;;25.40;29.80;;;;;;6108198;28;80381;-60
2022/02/15 12:27:57;;;;;;;20.13;8.85;;;25.40;30.00;;;;;;6104467;28;80791;-60
2022/02/15 12:30:57;;;;;;;15.40;8.25;;;25.30;29.80;;;;;;6111884;28;80882;-60
2022/02/15 12:33:58;;;;;;;14.20;8.07;;;25.40;30.00;;;;;;6108593;28;80492;-60
2022/02/15 12:36:58;;;;;;;13.07;7.68;;;25.40;29.60;;;;;;6112238;28;80985;-60
2022/02/15 12:39:59;;;;;;;14.63;7.30;;;25.40;29.70;;;;;;6110461;28;80867;-60
2022/02/15 12:42:59;;;;;;;11.40;7.07;;;25.50;29.40;;;;;;6113933;28;80235;-60
2022/02/15 12:46:00;;;;;;;13.48;7.00;;;25.40;29.30;;;;;;6107255;28;81886;-60
2022/02/15 12:49:02;;;;;;;11.30;6.13;;;25.40;29.40;;;;;;6112813;28;80886;-59
2022/02/15 12:52:03;;;;;;;11.88;6.57;;;25.20;28.90;;;;;;6127355;28;80407;-60
2022/02/15 12:55:04;;;;;;;13.15;7.65;;;25.20;29.20;;;;;;6110724;28;81118;-60
2022/02/15 12:58:06;;;;;;;11.88;6.90;;;25.30;29.60;;;;;;6126571;28;81139;-60
2022/02/15 13:01:06;;;;;;;18.52;7.72;;;25.30;29.60;;;;;;6106229;28;80870;-59
2022/02/15 13:04:07;;;;;;;15.68;7.68;;;25.20;29.60;;;;;;6109020;28;81995;-60
2022/02/15 13:07:07;;;;;;;15.57;7.65;;;25.20;29.80;;;;;;6105110;28;80873;-60
2022/02/15 13:10:08;;;;;;;11.65;7.63;;;25.20;30.30;;;;;;6108788;28;80656;-60
2022/02/15 13:13:09;;;;;;;14.60;7.00;;;25.10;29.80;;;;;;6118237;28;81079;-60
2022/02/15 13:16:09;;;;;;;13.57;8.25;;;25.10;29.70;;;;;;6117237;28;81106;-59
2022/02/15 13:19:10;;;;;;;14.27;7.28;;;25.10;30.20;;;;;;6109978;28;80646;-60
2022/02/15 13:22:10;;;;;;;12.40;7.75;;;25.10;30.30;;;;;;6107963;28;80380;-61
2022/02/15 13:25:11;;;;;;;19.98;8.23;;;25.30;30.80;;;;;;6097785;28;81696;-59
2022/02/15 13:28:12;;;;;;;13.52;7.32;;;25.30;31.30;;;;;;6103189;28;82090;-60
2022/02/15 13:31:13;;;;;;;18.08;8.10;;;25.40;30.60;;;;;;6097327;28;80908;-60
2022/02/15 13:34:13;;;;;;;14.25;7.53;;;25.40;30.40;;;;;;6108548;28;81343;-61
2022/02/15 13:37:14;;;;;;;17.92;7.43;;;25.40;30.30;;;;;;6107182;28;80645;-60
2022/02/15 13:40:15;;;;;;;14.05;8.23;;;25.40;30.80;;;;;;6111261;28;80460;-62
2022/02/15 13:43:15;;;;;;;18.73;7.57;;;25.40;30.60;;;;;;6100187;28;80708;-61
2022/02/15 13:46:16;;;;;;;15.45;7.25;;;25.30;30.10;;;;;;6100979;28;87282;-60
2022/02/15 13:49:16;;;;;;;13.05;7.70;;;25.30;30.20;;;;;;6109854;28;80686;-60
2022/02/15 13:52:17;;;;;;;15.75;8.43;;;25.30;30.00;;;;;;6110034;28;83128;-60
2022/02/15 13:55:18;;;;;;;24.35;7.80;;;25.20;29.70;;;;;;6098959;28;80586;-59
2022/02/15 13:58:19;;;;;;;18.98;8.23;;;25.20;29.50;;;;;;6096764;28;80773;-61
2022/02/15 14:01:20;;;;;;;16.60;7.93;;;24.90;29.00;;;;;;6106754;28;81740;-60
2022/02/15 14:04:26;;;;;;;16.42;8.43;;;24.60;29.40;;;;;;6104922;28;85243;-62
2022/02/15 14:07:30;;;;;;;14.48;7.28;;;24.60;29.80;;;;;;6107561;28;81985;-60
2022/02/15 14:10:30;;;;;;;19.73;8.43;;;24.60;29.90;;;;;;6106527;28;82105;-61
2022/02/15 14:13:31;;;;;;;22.70;8.65;;;24.70;30.10;;;;;;6108080;28;81998;-61
2022/02/15 14:16:32;;;;;;;43.22;9.55;;;24.80;30.00;;;;;;6105909;28;80196;-63
2022/02/15 14:19:33;;;;;;;17.45;8.98;;;25.00;30.00;;;;;;6091216;28;80788;-59
2022/02/15 14:22:33;;;;;;;16.88;8.98;;;25.20;29.80;;;;;;6095766;28;80634;-60
2022/02/15 14:25:34;;;;;;;19.60;10.13;;;25.40;29.70;;;;;;6095251;28;82177;-61
2022/02/15 14:28:35;;;;;;;16.27;9.20;;;25.30;29.90;;;;;;6088987;28;83604;-61
2022/02/15 14:31:35;;;;;;;15.20;9.07;;;25.30;30.00;;;;;;6098104;28;83715;-61
2022/02/15 14:34:36;;;;;;;17.80;9.70;;;25.10;30.00;;;;;;6097501;28;81236;-62
2022/02/15 14:37:36;;;;;;;17.75;9.82;;;25.00;30.00;;;;;;6108745;28;80573;-61
2022/02/15 14:40:37;;;;;;;20.10;11.40;;;24.90;30.00;;;;;;6117675;28;80494;-60
2022/02/15 14:43:38;;;;;;;19.83;11.38;;;24.70;30.10;;;;;;6098918;28;83074;-59
2022/02/15 14:46:38;;;;;;;18.67;9.85;;;24.60;30.20;;;;;;6119219;28;83546;-60
2022/02/15 14:49:39;;;;;;;18.63;9.90;;;24.30;31.00;;;;;;6131173;28;82989;-61
2022/02/15 14:52:40;;;;;;;19.75;9.57;;;24.40;31.20;;;;;;6130880;28;80350;-61
2022/02/15 14:55:40;;;;;;;19.25;9.95;;;24.60;31.40;;;;;;6108611;28;80961;-60
2022/02/15 14:58:42;;;;;;;19.30;9.60;;;24.70;31.70;;;;;;6112378;28;80363;-61
2022/02/15 15:01:43;;;;;;;18.02;10.50;;;24.80;32.00;;;;;;6109685;28;80737;-60
2022/02/15 15:04:44;;;;;;;17.08;9.48;;;24.80;32.30;;;;;;6097610;28;84552;-61
2022/02/15 15:07:44;;;;;;;17.02;9.15;;;24.90;32.60;;;;;;6104401;28;84666;-61
2022/02/15 15:10:47;;;;;;;16.35;9.45;;;24.90;32.70;;;;;;6110216;28;81391;-60
2022/02/15 15:13:47;;;;;;;19.10;9.43;;;24.90;33.00;;;;;;6102655;28;81695;-59
2022/02/15 15:16:48;;;;;;;17.88;9.10;;;24.90;33.00;;;;;;6097423;28;81951;-59
2022/02/15 15:19:48;;;;;;;18.73;8.80;;;24.90;33.20;;;;;;6095985;28;80498;-60
2022/02/15 15:22:49;;;;;;;12.63;7.75;;;24.90;33.30;;;;;;6110803;28;80530;-60
2022/02/15 15:25:49;;;;;;;13.90;7.90;;;24.80;33.30;;;;;;6093970;28;81413;-61
2022/02/15 15:28:50;;;;;;;18.45;8.70;;;24.90;33.60;;;;;;6098776;28;81113;-60
2022/02/15 15:31:52;;;;;;;14.80;7.53;;;24.90;33.70;;;;;;6100426;28;87359;-60